createdAt,value
2022-10-01T00:00:18.283Z,101219.98
2022-10-01T00:03:54.647Z,101218.28
2022-10-01T00:07:11.142Z,101224.28
2022-10-01T00:10:07.789Z,101222.05
2022-10-01T00:12:23.244Z,101218.04
2022-10-01T00:14:45.777Z,101214.73
2022-10-01T00:18:01.867Z,101210.10
2022-10-01T00:21:13.343Z,101204.98
2022-10-01T00:24:08.146Z,101207.46
2022-10-01T00:26:48.656Z,101202.00
2022-10-01T00:30:17.621Z,101205.59
2022-10-01T00:33:28.782Z,101202.55
2022-10-01T00:36:46.776Z,101197.71
2022-10-01T00:39:28.570Z,101199.05
2022-10-01T00:41:46.421Z,101197.55
2022-10-01T00:44:55.056Z,101198.23
2022-10-01T00:48:25.739Z,101199.05
2022-10-01T00:51:44.562Z,101201.64
2022-10-01T00:54:54.792Z,101194.17
2022-10-01T00:58:12.128Z,101190.27
2022-10-01T01:01:41.027Z,101189.11
2022-10-01T01:05:00.671Z,101187.88
2022-10-01T01:08:29.481Z,101180.79
2022-10-01T01:11:56.678Z,101190.28
2022-10-01T01:15:44.441Z,101196.61
2022-10-01T01:19:29.108Z,101191.14
2022-10-01T01:22:38.591Z,101191.75
2022-10-01T01:26:02.955Z,101189.31
2022-10-01T01:29:30.094Z,101188.73
2022-10-01T01:33:01.857Z,101187.50
2022-10-01T01:36:13.175Z,101185.14
2022-10-01T01:39:40.546Z,101186.26
2022-10-01T01:43:08.103Z,101184.87
2022-10-01T01:46:26.028Z,101184.17
2022-10-01T01:49:55.175Z,101182.90
2022-10-01T01:53:06.608Z,101180.80
2022-10-01T02:00:09.302Z,101181.67
2022-10-01T02:03:04.508Z,101178.84
2022-10-01T02:06:21.756Z,101179.10
2022-10-01T02:09:40.246Z,101180.80
2022-10-01T02:13:06.640Z,101183.25
2022-10-01T02:28:26.810Z,101178.31
2022-10-01T02:35:08.175Z,101176.48
2022-10-01T02:38:17.092Z,101170.08
2022-10-01T02:40:43.678Z,101163.61
2022-10-01T02:44:07.724Z,101167.58
2022-10-01T02:47:17.412Z,101176.42
2022-10-01T02:50:14.820Z,101181.00
2022-10-01T02:57:34.998Z,101179.55
2022-10-01T03:00:44.421Z,101180.81
2022-10-01T03:03:55.234Z,101180.41
2022-10-01T03:06:03.643Z,101179.38
2022-10-01T03:09:12.000Z,101188.66
2022-10-01T03:11:34.892Z,101188.80
2022-10-01T03:14:01.356Z,101190.05
2022-10-01T03:16:29.154Z,101191.27
2022-10-01T03:18:34.543Z,101199.09
2022-10-01T03:20:49.902Z,101195.01
2022-10-01T03:22:55.610Z,101197.36
2022-10-01T03:25:01.129Z,101197.73
2022-10-01T03:27:09.219Z,101195.06
2022-10-01T03:29:15.077Z,101190.63
2022-10-01T03:31:20.251Z,101197.27
2022-10-01T03:33:28.679Z,101203.61
2022-10-01T03:35:37.833Z,101206.87
2022-10-01T03:37:43.169Z,101208.98
2022-10-01T03:39:51.492Z,101210.80
2022-10-01T03:41:59.381Z,101214.36
2022-10-01T04:08:11.593Z,101198.27
2022-10-01T04:11:37.839Z,101204.52
2022-10-01T04:14:45.896Z,101209.33
2022-10-01T04:17:12.515Z,101209.31
2022-10-01T04:19:35.878Z,101210.89
2022-10-01T04:21:40.799Z,101219.42
2022-10-01T04:23:50.706Z,101221.52
2022-10-01T04:26:09.245Z,101222.52
2022-10-01T04:28:35.588Z,101224.49
2022-10-01T04:31:24.052Z,101228.98
2022-10-01T04:33:52.362Z,101224.81
2022-10-01T04:36:48.035Z,101224.71
2022-10-01T04:40:03.211Z,101228.07
2022-10-01T04:42:13.869Z,101225.88
2022-10-01T04:44:43.435Z,101227.57
2022-10-01T04:46:51.914Z,101230.51
2022-10-01T04:49:00.249Z,101227.27
2022-10-01T04:51:05.788Z,101228.02
2022-10-01T04:53:10.934Z,101225.42
2022-10-01T04:55:17.022Z,101221.61
2022-10-01T04:57:42.299Z,101221.17
2022-10-01T04:59:53.777Z,101221.25
2022-10-01T05:02:33.413Z,101223.20
2022-10-01T05:04:56.551Z,101216.77
2022-10-01T05:07:28.163Z,101217.27
2022-10-01T05:10:00.138Z,101220.22
2022-10-01T05:12:44.819Z,101217.14
2022-10-01T05:15:10.176Z,101220.73
2022-10-01T05:17:18.897Z,101224.70
2022-10-01T05:19:34.900Z,101224.97
2022-10-01T05:21:39.821Z,101229.17
2022-10-01T05:23:48.099Z,101230.55
2022-10-01T05:25:52.894Z,101232.23
2022-10-01T05:28:06.169Z,101233.04
2022-10-01T05:30:34.476Z,101231.02
2022-10-01T05:33:03.253Z,101231.98
2022-10-01T05:35:18.062Z,101234.20
2022-10-01T05:37:24.729Z,101232.87
2022-10-01T05:39:30.819Z,101235.65
2022-10-01T05:41:36.665Z,101239.77
2022-10-01T05:43:45.708Z,101240.34
2022-10-01T05:46:51.173Z,101241.27
2022-10-01T05:49:23.981Z,101248.42
2022-10-01T05:52:17.591Z,101248.91
2022-10-01T05:54:59.080Z,101239.95
2022-10-01T05:57:19.397Z,101246.30
2022-10-01T06:00:00.930Z,101248.42
2022-10-01T06:02:19.927Z,101257.79
2022-10-01T06:05:06.424Z,101259.83
2022-10-01T06:07:52.330Z,101253.58
2022-10-01T06:10:03.059Z,101252.80
2022-10-01T06:12:20.173Z,101249.61
2022-10-01T06:14:28.104Z,101252.45
2022-10-01T06:16:42.661Z,101251.66
2022-10-01T06:19:09.686Z,101248.80
2022-10-01T06:21:42.343Z,101248.15
2022-10-01T06:24:43.141Z,101247.77
2022-10-01T06:26:54.656Z,101242.75
2022-10-01T06:29:03.951Z,101242.11
2022-10-01T06:31:08.749Z,101246.44
2022-10-01T06:33:18.351Z,101250.33
2022-10-01T06:35:24.113Z,101248.64
2022-10-01T06:37:32.702Z,101246.42
2022-10-01T06:39:49.443Z,101245.70
2022-10-01T06:42:07.372Z,101250.18
2022-10-01T06:44:37.516Z,101252.79
2022-10-01T06:47:07.515Z,101248.11
2022-10-01T06:50:00.173Z,101251.16
2022-10-01T06:53:02.926Z,101251.94
2022-10-01T06:55:40.764Z,101250.90
2022-10-01T06:58:20.287Z,101251.42
2022-10-01T07:00:42.068Z,101256.00
2022-10-01T07:02:50.781Z,101257.26
2022-10-01T07:04:59.519Z,101255.41
2022-10-01T07:07:04.472Z,101252.80
2022-10-01T07:09:09.963Z,101244.33
2022-10-01T07:11:24.467Z,101248.17
2022-10-01T07:13:29.753Z,101245.97
2022-10-01T07:15:37.888Z,101246.11
2022-10-01T07:18:00.197Z,101245.78
2022-10-01T07:20:06.259Z,101246.23
2022-10-01T07:22:11.334Z,101248.37
2022-10-01T07:24:16.878Z,101251.70
2022-10-01T07:26:21.813Z,101246.39
2022-10-01T07:28:28.719Z,101245.17
2022-10-01T07:30:35.504Z,101245.55
2022-10-01T07:32:43.978Z,101243.39
2022-10-01T07:35:09.405Z,101246.77
2022-10-01T07:37:15.218Z,101245.08
2022-10-01T07:39:40.965Z,101243.07
2022-10-01T07:41:46.117Z,101245.84
2022-10-01T07:44:03.831Z,101248.18
2022-10-01T07:46:08.927Z,101246.98
2022-10-01T07:48:17.961Z,101245.46
2022-10-01T07:50:22.822Z,101253.02
2022-10-01T07:52:28.056Z,101247.71
2022-10-01T07:54:33.747Z,101251.41
2022-10-01T07:56:39.114Z,101249.64
2022-10-01T07:58:47.138Z,101245.75
2022-10-01T08:01:15.089Z,101245.88
2022-10-01T08:03:44.825Z,101244.74
2022-10-01T08:05:54.676Z,101241.40
2022-10-01T08:08:43.674Z,101231.36
2022-10-01T08:11:04.254Z,101228.83
2022-10-01T08:13:17.230Z,101225.56
2022-10-01T08:15:22.444Z,101225.16
2022-10-01T08:18:02.002Z,101227.12
2022-10-01T08:20:32.042Z,101223.21
2022-10-01T08:23:02.451Z,101224.02
2022-10-01T08:25:30.369Z,101218.92
2022-10-01T08:27:35.570Z,101220.75
2022-10-01T08:29:43.756Z,101215.74
2022-10-01T08:31:49.552Z,101215.10
2022-10-01T08:33:54.533Z,101217.99
2022-10-01T08:36:22.586Z,101213.66
2022-10-01T08:38:28.135Z,101216.02
2022-10-01T08:40:41.584Z,101209.45
2022-10-01T08:43:06.737Z,101203.05
2022-10-01T08:45:23.100Z,101201.44
2022-10-01T08:47:35.693Z,101195.84
2022-10-01T08:49:59.843Z,101201.18
2022-10-01T08:52:36.108Z,101204.79
2022-10-01T08:54:46.900Z,101209.81
2022-10-01T08:56:54.580Z,101212.95
2022-10-01T08:59:04.034Z,101218.30
2022-10-01T09:01:11.850Z,101219.94
2022-10-01T09:03:20.126Z,101218.04
2022-10-01T09:05:48.931Z,101218.11
2022-10-01T09:08:15.640Z,101219.52
2022-10-01T09:10:28.072Z,101214.05
2022-10-01T09:13:11.801Z,101211.89
2022-10-01T09:15:38.419Z,101208.59
2022-10-01T09:18:22.810Z,101198.59
2022-10-01T09:20:36.726Z,101193.81
2022-10-01T09:22:58.520Z,101191.28
2022-10-01T09:25:25.765Z,101194.42
2022-10-01T09:27:32.817Z,101193.43
2022-10-01T09:29:44.862Z,101197.27
2022-10-01T09:31:51.868Z,101200.81
2022-10-01T09:34:21.386Z,101199.59
2022-10-01T09:36:38.003Z,101195.70
2022-10-01T09:39:00.611Z,101200.16
2022-10-01T09:41:11.112Z,101201.78
2022-10-01T09:43:22.337Z,101206.96
2022-10-01T09:45:51.405Z,101207.75
2022-10-01T09:48:05.814Z,101201.41
2022-10-01T09:50:23.065Z,101197.93
2022-10-01T09:52:43.186Z,101202.73
2022-10-01T09:54:59.110Z,101202.95
2022-10-01T09:57:15.661Z,101200.72
2022-10-01T09:59:45.103Z,101202.29
2022-10-01T10:02:15.683Z,101198.80
2022-10-01T10:04:24.745Z,101193.66
2022-10-01T10:07:29.891Z,101196.10
2022-10-01T10:10:30.669Z,101189.77
2022-10-01T10:12:47.569Z,101183.92
2022-10-01T10:15:02.844Z,101187.85
2022-10-01T10:17:22.692Z,101190.17
2022-10-01T10:19:29.785Z,101187.80
2022-10-01T10:21:35.805Z,101178.73
2022-10-01T10:23:59.719Z,101174.27
2022-10-01T10:26:08.099Z,101174.08
2022-10-01T10:28:23.960Z,101172.48
2022-10-01T10:30:30.453Z,101170.30
2022-10-01T10:32:36.451Z,101163.17
2022-10-01T10:34:47.360Z,101153.73
2022-10-01T10:37:00.014Z,101162.06
2022-10-01T10:39:10.135Z,101162.00
2022-10-01T10:41:19.786Z,101163.94
2022-10-01T10:43:32.506Z,101163.35
2022-10-01T10:45:40.208Z,101163.39
2022-10-01T10:47:51.850Z,101155.50
2022-10-01T10:50:05.208Z,101149.32
2022-10-01T10:52:30.242Z,101148.49
2022-10-01T10:54:41.890Z,101152.48
2022-10-01T10:57:29.607Z,101146.90
2022-10-01T10:59:35.717Z,101150.49
2022-10-01T11:02:02.192Z,101151.33
2022-10-01T11:04:27.615Z,101154.52
2022-10-01T11:06:33.234Z,101151.58
2022-10-01T11:08:40.307Z,101152.80
2022-10-01T11:11:07.926Z,101151.14
2022-10-01T11:13:44.049Z,101154.75
2022-10-01T11:16:36.176Z,101156.55
2022-10-01T11:19:18.904Z,101156.95
2022-10-01T11:21:32.334Z,101157.46
2022-10-01T11:23:56.740Z,101162.33
2022-10-01T11:26:07.749Z,101164.35
2022-10-01T11:28:32.287Z,101158.58
2022-10-01T11:30:43.154Z,101161.23
2022-10-01T11:32:56.349Z,101159.01
2022-10-01T11:35:13.591Z,101159.91
2022-10-01T11:37:36.520Z,101155.36
2022-10-01T11:39:45.265Z,101154.41
2022-10-01T11:41:56.062Z,101152.83
2022-10-01T11:44:08.227Z,101155.19
2022-10-01T11:46:27.537Z,101156.11
2022-10-01T11:48:42.353Z,101154.66
2022-10-01T11:50:51.879Z,101155.90
2022-10-01T11:53:17.532Z,101151.32
2022-10-01T11:55:47.007Z,101156.20
2022-10-01T11:58:21.928Z,101158.54
2022-10-01T12:00:40.965Z,101156.05
2022-10-01T12:03:06.030Z,101153.02
2022-10-01T12:05:33.662Z,101154.98
2022-10-01T12:08:09.680Z,101154.98
2022-10-01T12:10:39.651Z,101155.34
2022-10-01T12:13:28.519Z,101157.44
2022-10-01T12:15:55.946Z,101157.73
2022-10-01T12:18:14.496Z,101154.26
2022-10-01T12:20:28.639Z,101156.83
2022-10-01T12:22:40.330Z,101157.05
2022-10-01T12:24:46.179Z,101153.80
2022-10-01T12:27:14.476Z,101153.61
2022-10-01T12:29:27.613Z,101152.31
2022-10-01T12:31:52.807Z,101156.41
2022-10-01T12:34:22.826Z,101158.77
2022-10-01T12:36:50.320Z,101158.98
2022-10-01T12:39:08.949Z,101160.66
2022-10-01T12:41:38.633Z,101160.06
2022-10-01T12:44:11.827Z,101158.86
2022-10-01T12:46:29.004Z,101155.20
2022-10-01T12:48:48.931Z,101160.64
2022-10-01T12:51:15.306Z,101163.55
2022-10-01T12:53:46.395Z,101166.15
2022-10-01T12:56:05.161Z,101156.04
2022-10-01T12:59:06.802Z,101161.58
2022-10-01T13:01:52.157Z,101160.34
2022-10-01T13:04:08.962Z,101159.86
2022-10-01T13:07:13.172Z,101156.44
2022-10-01T13:09:34.694Z,101158.42
2022-10-01T13:11:59.566Z,101155.08
2022-10-01T13:14:08.146Z,101154.98
2022-10-01T13:16:30.532Z,101158.64
2022-10-01T13:18:39.731Z,101157.28
2022-10-01T13:20:54.758Z,101163.49
2022-10-01T13:23:13.289Z,101159.61
2022-10-01T13:25:49.404Z,101162.19
2022-10-01T13:28:10.882Z,101163.40
2022-10-01T13:30:18.910Z,101167.93
2022-10-01T13:32:33.809Z,101169.48
2022-10-01T13:34:42.098Z,101169.29
2022-10-01T13:36:57.445Z,101169.05
2022-10-01T13:39:02.488Z,101171.32
2022-10-01T13:41:23.493Z,101170.59
2022-10-01T13:43:31.560Z,101169.30
2022-10-01T13:45:39.720Z,101169.27
2022-10-01T13:47:44.724Z,101167.55
2022-10-01T13:50:04.796Z,101167.39
2022-10-01T13:52:24.039Z,101166.91
2022-10-01T13:54:40.228Z,101169.17
2022-10-01T13:56:45.202Z,101171.52
2022-10-01T13:58:53.503Z,101170.89
2022-10-01T14:01:23.573Z,101171.42
2022-10-01T14:03:35.115Z,101171.98
2022-10-01T14:06:07.870Z,101166.77
2022-10-01T14:08:50.558Z,101170.59
2022-10-01T14:11:33.088Z,101171.77
2022-10-01T14:14:02.245Z,101176.30
2022-10-01T14:16:07.965Z,101177.88
2022-10-01T14:18:18.437Z,101177.46
2022-10-01T14:20:31.325Z,101182.50
2022-10-01T14:22:41.864Z,101178.96
2022-10-01T14:25:22.832Z,101179.32
2022-10-01T14:28:00.613Z,101177.80
2022-10-01T14:30:23.522Z,101180.29
2022-10-01T14:32:38.528Z,101178.77
2022-10-01T14:34:59.906Z,101178.91
2022-10-01T14:37:08.719Z,101184.34
2022-10-01T14:39:17.837Z,101183.09
2022-10-01T14:41:27.339Z,101178.98
2022-10-01T14:43:33.787Z,101175.04
2022-10-01T14:45:38.948Z,101174.04
2022-10-01T14:47:44.042Z,101173.63
2022-10-01T14:49:50.289Z,101173.03
2022-10-01T14:52:17.675Z,101171.21
2022-10-01T14:54:23.350Z,101169.77
2022-10-01T14:56:41.949Z,101168.54
2022-10-01T14:58:53.268Z,101172.89
2022-10-01T15:00:59.982Z,101168.44
2022-10-01T15:03:18.541Z,101164.67
2022-10-01T15:05:30.011Z,101171.30
2022-10-01T15:07:37.308Z,101177.02
2022-10-01T15:09:42.425Z,101173.27
2022-10-01T15:11:51.704Z,101176.16
2022-10-01T15:14:27.496Z,101176.46
2022-10-01T15:16:36.862Z,101176.21
2022-10-01T15:19:01.765Z,101172.19
2022-10-01T15:21:08.122Z,101171.70
2022-10-01T15:23:13.445Z,101172.40
2022-10-01T15:25:25.356Z,101177.79
2022-10-01T15:27:31.578Z,101176.61
2022-10-01T15:29:39.270Z,101175.21
2022-10-01T15:32:18.745Z,101175.85
2022-10-01T15:34:56.421Z,101177.53
2022-10-01T15:37:15.007Z,101176.77
2022-10-01T15:39:48.520Z,101178.38
2022-10-01T15:42:14.469Z,101172.23
2022-10-01T15:44:58.325Z,101163.78
2022-10-01T15:47:52.078Z,101165.77
2022-10-01T15:50:36.994Z,101166.56
2022-10-01T15:53:18.648Z,101176.77
2022-10-01T15:55:40.070Z,101177.64
2022-10-01T15:57:45.952Z,101175.41
2022-10-01T16:00:09.313Z,101179.33
2022-10-01T16:02:37.058Z,101175.11
2022-10-01T16:04:42.924Z,101167.98
2022-10-01T16:07:12.899Z,101168.01
2022-10-01T16:10:21.875Z,101162.52
2022-10-01T16:12:48.076Z,101163.25
2022-10-01T16:15:18.818Z,101157.45
2022-10-01T16:18:16.807Z,101163.94
2022-10-01T16:21:39.193Z,101165.71
2022-10-01T16:24:47.650Z,101163.90
2022-10-01T16:27:52.730Z,101162.77
2022-10-01T16:30:28.505Z,101152.83
2022-10-01T16:33:16.474Z,101157.34
2022-10-01T16:36:33.032Z,101153.66
2022-10-01T16:39:31.948Z,101147.91
2022-10-01T16:42:22.387Z,101138.83
2022-10-01T16:45:08.865Z,101140.30
2022-10-01T16:48:17.752Z,101140.27
2022-10-01T16:51:13.442Z,101133.16
2022-10-01T16:54:08.620Z,101128.56
2022-10-01T16:57:26.030Z,101122.40
2022-10-01T17:00:51.767Z,101122.27
2022-10-01T17:03:58.980Z,101119.33
2022-10-01T17:06:32.701Z,101121.19
2022-10-01T17:09:32.146Z,101115.39
2022-10-01T17:12:46.234Z,101114.70
2022-10-01T17:16:14.638Z,101111.35
2022-10-01T17:19:29.077Z,101112.30
2022-10-01T17:22:39.825Z,101112.23
2022-10-01T17:25:08.839Z,101105.45
2022-10-01T17:27:23.402Z,101106.41
2022-10-01T17:30:13.854Z,101104.52
2022-10-01T17:33:09.825Z,101105.04
2022-10-01T17:35:25.282Z,101099.60
2022-10-01T17:38:32.454Z,101094.36
2022-10-01T17:40:59.567Z,101095.61
2022-10-01T17:43:12.994Z,101084.88
2022-10-01T17:46:02.203Z,101082.64
2022-10-01T17:49:21.781Z,101078.21
2022-10-01T17:52:40.955Z,101075.45
2022-10-01T17:55:35.962Z,101072.07
2022-10-01T17:58:44.985Z,101071.89
2022-10-01T18:02:36.432Z,101067.30
2022-10-01T18:05:25.998Z,101064.23
2022-10-01T18:08:54.756Z,101056.83
2022-10-01T18:11:41.537Z,101049.73
2022-10-01T18:14:53.023Z,101048.13
2022-10-01T18:17:52.118Z,101047.09
2022-10-01T18:21:08.689Z,101037.36
2022-10-01T18:24:04.787Z,101040.12
2022-10-01T18:27:19.135Z,101028.16
2022-10-01T18:30:10.644Z,101031.76
2022-10-01T18:33:25.584Z,101024.77
2022-10-01T18:36:50.614Z,101017.27
2022-10-01T18:39:37.101Z,101014.41
2022-10-01T18:42:52.805Z,101016.73
2022-10-01T18:46:03.829Z,101009.02
2022-10-01T18:49:05.692Z,101008.36
2022-10-01T18:52:42.938Z,101000.06
2022-10-01T18:56:14.192Z,100994.15
2022-10-01T18:59:51.129Z,100990.27
2022-10-01T19:02:50.892Z,100984.86
2022-10-01T19:05:35.656Z,100978.56
2022-10-01T19:08:08.944Z,100981.54
2022-10-01T19:11:32.788Z,100972.38
2022-10-01T19:14:46.377Z,100969.52
2022-10-01T19:18:00.387Z,100963.04
2022-10-01T19:21:48.157Z,100956.98
2022-10-01T19:24:41.137Z,100949.23
2022-10-01T19:27:55.533Z,100951.04
2022-10-01T19:30:49.324Z,100956.89
2022-10-01T19:34:07.263Z,100950.71
2022-10-01T19:37:18.277Z,100952.35
2022-10-01T19:40:27.191Z,100950.73
2022-10-01T19:43:32.525Z,100951.98
2022-10-01T19:47:03.102Z,100946.44
2022-10-01T19:49:45.355Z,100947.69
2022-10-01T19:53:13.875Z,100947.79
2022-10-01T19:56:13.855Z,100940.13
2022-10-01T19:59:19.514Z,100942.55
2022-10-01T20:02:21.115Z,100929.11
2022-10-01T20:05:00.208Z,100932.45
2022-10-01T20:07:55.119Z,100922.95
2022-10-01T20:11:19.097Z,100918.63
2022-10-01T20:14:08.573Z,100916.81
2022-10-01T20:16:55.718Z,100908.59
2022-10-01T20:20:26.812Z,100905.30
2022-10-01T20:24:00.433Z,100901.73
2022-10-01T20:27:29.136Z,100893.92
2022-10-01T20:31:03.692Z,100903.14
2022-10-01T20:34:57.029Z,100892.05
2022-10-01T20:38:00.858Z,100881.90
2022-10-01T20:40:56.290Z,100874.43
2022-10-01T20:44:28.843Z,100871.36
2022-10-01T20:48:02.657Z,100868.13
2022-10-01T20:50:48.818Z,100864.98
2022-10-01T20:53:54.528Z,100857.04
2022-10-01T20:57:10.138Z,100851.64
2022-10-01T21:00:39.926Z,100852.83
2022-10-01T21:03:46.493Z,100852.22
2022-10-01T21:07:25.049Z,100844.14
2022-10-01T21:10:39.399Z,100844.00
2022-10-01T21:13:53.297Z,100837.38
2022-10-01T21:17:06.022Z,100836.45
2022-10-01T21:20:16.923Z,100827.01
2022-10-01T21:23:23.294Z,100823.24
2022-10-01T21:26:39.977Z,100812.34
2022-10-01T21:29:40.524Z,100809.55
2022-10-01T21:32:45.025Z,100817.19
2022-10-01T21:35:55.092Z,100814.25
2022-10-01T21:39:16.842Z,100804.55
2022-10-01T21:42:52.046Z,100796.57
2022-10-01T21:46:21.191Z,100794.95
2022-10-01T21:49:36.223Z,100794.39
2022-10-01T21:53:37.803Z,100778.25
2022-10-01T21:56:29.164Z,100784.58
2022-10-01T22:00:09.480Z,100777.30
2022-10-01T22:03:36.876Z,100770.64
2022-10-01T22:06:40.174Z,100779.44
2022-10-01T22:10:15.252Z,100777.38
2022-10-01T22:13:31.278Z,100765.95
2022-10-01T22:16:46.641Z,100768.38
2022-10-01T22:19:40.693Z,100766.23
2022-10-01T22:22:52.359Z,100765.70
2022-10-01T22:26:03.017Z,100764.34
2022-10-01T22:29:22.702Z,100764.95
2022-10-01T22:32:40.910Z,100755.85
2022-10-01T22:35:19.671Z,100754.44
2022-10-01T22:37:40.579Z,100750.73
2022-10-01T22:40:49.667Z,100744.45
2022-10-01T22:44:09.260Z,100751.23
2022-10-01T22:47:32.337Z,100750.83
2022-10-01T22:50:40.152Z,100750.54
2022-10-01T22:54:03.327Z,100736.96
2022-10-01T22:56:58.970Z,100741.20
2022-10-01T23:00:37.541Z,100739.27
2022-10-01T23:03:32.699Z,100735.54
2022-10-01T23:06:36.597Z,100734.63
2022-10-01T23:09:47.658Z,100734.21
2022-10-01T23:13:12.942Z,100733.56
2022-10-01T23:16:17.054Z,100732.10
2022-10-01T23:19:52.336Z,100730.69
2022-10-01T23:23:00.361Z,100720.94
2022-10-01T23:25:51.131Z,100724.90
2022-10-01T23:28:37.126Z,100730.42
2022-10-01T23:31:22.783Z,100730.60
2022-10-01T23:34:46.615Z,100724.79
2022-10-01T23:38:04.535Z,100725.31
2022-10-01T23:41:22.282Z,100725.59
2022-10-01T23:44:29.501Z,100726.21
2022-10-01T23:47:25.066Z,100719.69
2022-10-01T23:50:36.334Z,100729.77
2022-10-01T23:53:45.310Z,100727.13
2022-10-01T23:57:10.002Z,100718.73
